createdAt,value
2022-08-17T00:01:27.128Z,60.00
2022-08-17T00:03:54.058Z,60.20
2022-08-17T00:06:26.044Z,60.00
2022-08-17T00:08:55.490Z,60.30
2022-08-17T00:11:31.325Z,60.40
2022-08-17T00:14:03.890Z,60.50
2022-08-17T00:16:50.414Z,60.40
2022-08-17T00:19:23.580Z,60.50
2022-08-17T00:22:33.039Z,60.50
2022-08-17T00:24:38.156Z,60.60
2022-08-17T00:27:04.887Z,60.80
2022-08-17T00:29:31.588Z,60.80
2022-08-17T00:31:58.328Z,60.80
2022-08-17T00:34:25.276Z,61.00
2022-08-17T00:36:54.793Z,61.00
2022-08-17T00:39:21.606Z,61.20
2022-08-17T00:41:48.487Z,61.50
2022-08-17T00:44:16.453Z,62.30
2022-08-17T00:46:43.794Z,61.10
2022-08-17T00:49:11.424Z,61.10
2022-08-17T00:51:44.382Z,61.10
2022-08-17T00:54:30.184Z,61.40
2022-08-17T00:57:00.175Z,61.50
2022-08-17T00:59:31.014Z,61.60
2022-08-17T01:01:58.199Z,61.60
2022-08-17T01:04:25.300Z,61.80
2022-08-17T01:06:52.240Z,61.80
2022-08-17T01:09:19.143Z,62.20
2022-08-17T01:11:46.100Z,62.30
2022-08-17T01:14:13.312Z,62.40
2022-08-17T01:16:40.073Z,62.30
2022-08-17T01:19:26.382Z,62.40
2022-08-17T01:22:16.486Z,62.50
2022-08-17T01:24:48.873Z,62.50
2022-08-17T01:27:16.106Z,62.50
2022-08-17T01:29:46.797Z,62.50
2022-08-17T01:32:13.571Z,62.70
2022-08-17T01:34:43.502Z,62.30
2022-08-17T01:37:17.521Z,62.20
2022-08-17T01:39:45.557Z,62.20
2022-08-17T01:42:39.654Z,62.40
2022-08-17T01:45:18.394Z,62.50
2022-08-17T01:47:45.731Z,62.10
2022-08-17T01:50:15.933Z,62.00
2022-08-17T01:52:44.722Z,62.10
2022-08-17T01:55:11.683Z,62.30
2022-08-17T01:57:38.422Z,62.40
2022-08-17T02:00:07.941Z,62.40
2022-08-17T02:02:34.685Z,62.50
2022-08-17T02:05:01.436Z,62.50
2022-08-17T02:07:28.371Z,62.40
2022-08-17T02:09:55.108Z,62.30
2022-08-17T02:12:38.278Z,62.50
2022-08-17T02:15:07.414Z,62.40
2022-08-17T02:17:34.453Z,63.40
2022-08-17T02:20:01.233Z,62.60
2022-08-17T02:22:28.030Z,62.50
2022-08-17T02:24:59.843Z,62.70
2022-08-17T02:27:28.485Z,63.00
2022-08-17T02:29:55.182Z,63.20
2022-08-17T02:32:25.297Z,63.20
2022-08-17T02:34:55.878Z,63.10
2022-08-17T02:37:22.608Z,63.00
2022-08-17T02:39:49.414Z,63.10
2022-08-17T02:42:16.268Z,63.10
2022-08-17T02:44:43.023Z,63.30
2022-08-17T02:47:10.142Z,63.40
2022-08-17T02:49:37.141Z,63.70
2022-08-17T02:52:05.161Z,63.60
2022-08-17T02:54:39.874Z,63.70
2022-08-17T02:57:08.947Z,63.70
2022-08-17T02:59:35.642Z,63.60
2022-08-17T03:02:07.453Z,63.50
2022-08-17T03:04:35.356Z,63.50
2022-08-17T03:07:02.744Z,63.20
2022-08-17T03:09:29.504Z,63.10
2022-08-17T03:12:03.277Z,63.10
2022-08-17T03:14:32.203Z,63.30
2022-08-17T03:16:59.282Z,63.10
2022-08-17T03:19:26.082Z,63.00
2022-08-17T03:21:55.419Z,63.20
2022-08-17T03:24:25.701Z,63.30
2022-08-17T03:26:55.687Z,63.30
2022-08-17T03:29:22.428Z,63.50
2022-08-17T03:31:49.623Z,63.30
2022-08-17T03:34:16.527Z,63.50
2022-08-17T03:36:43.347Z,63.50
2022-08-17T03:39:10.137Z,63.70
2022-08-17T03:41:36.892Z,63.30
2022-08-17T03:44:04.021Z,63.40
2022-08-17T03:46:49.104Z,63.30
2022-08-17T03:49:34.400Z,63.30
2022-08-17T03:52:19.468Z,63.50
2022-08-17T03:55:04.682Z,63.40
2022-08-17T03:57:31.507Z,63.00
2022-08-17T03:59:58.705Z,63.90
2022-08-17T04:02:26.565Z,65.00
2022-08-17T04:04:53.887Z,64.20
2022-08-17T04:07:21.594Z,64.20
2022-08-17T04:09:48.385Z,64.40
2022-08-17T04:12:19.268Z,64.70
2022-08-17T04:14:53.619Z,64.60
2022-08-17T04:17:23.106Z,64.80
2022-08-17T04:19:49.849Z,64.80
2022-08-17T04:22:33.099Z,64.60
2022-08-17T04:25:09.305Z,63.90
2022-08-17T04:27:36.175Z,63.80
2022-08-17T04:30:03.073Z,64.00
2022-08-17T04:32:59.461Z,64.20
2022-08-17T04:35:21.552Z,64.50
2022-08-17T04:37:48.399Z,64.50
2022-08-17T04:40:33.699Z,64.40
2022-08-17T04:43:05.630Z,64.40
2022-08-17T04:45:32.781Z,64.50
2022-08-17T04:48:00.603Z,64.20
2022-08-17T04:50:27.607Z,64.20
2022-08-17T04:52:54.578Z,64.40
2022-08-17T04:55:21.675Z,65.40
2022-08-17T04:57:48.429Z,66.50
2022-08-17T05:00:15.478Z,66.90
2022-08-17T05:02:49.949Z,67.40
2022-08-17T05:05:21.280Z,67.90
2022-08-17T05:07:48.446Z,68.50
2022-08-17T05:10:15.246Z,69.10
2022-08-17T05:12:41.998Z,68.90
2022-08-17T05:15:16.033Z,68.90
2022-08-17T05:17:43.763Z,67.50
2022-08-17T05:20:10.815Z,67.70
2022-08-17T05:22:46.199Z,68.00
2022-08-17T05:25:13.141Z,67.90
2022-08-17T05:27:40.492Z,67.70
2022-08-17T05:30:08.900Z,68.10
2022-08-17T05:32:38.457Z,68.00
2022-08-17T05:35:07.331Z,68.00
2022-08-17T05:37:34.081Z,68.00
2022-08-17T05:40:00.893Z,67.10
2022-08-17T05:42:27.678Z,68.10
2022-08-17T05:44:57.529Z,66.90
2022-08-17T05:47:24.374Z,66.70
2022-08-17T05:49:51.078Z,66.50
2022-08-17T05:52:23.568Z,66.50
2022-08-17T05:55:06.251Z,66.30
2022-08-17T05:57:53.608Z,65.80
2022-08-17T06:00:31.066Z,65.60
2022-08-17T06:03:08.389Z,65.80
2022-08-17T06:05:59.559Z,65.30
2022-08-17T06:09:17.892Z,65.10
2022-08-17T06:11:53.542Z,65.00
2022-08-17T06:14:31.523Z,64.90
2022-08-17T06:17:10.960Z,64.70
2022-08-17T06:19:54.680Z,64.50
2022-08-17T06:22:23.528Z,64.60
2022-08-17T06:25:22.562Z,64.40
2022-08-17T06:27:57.209Z,64.30
2022-08-17T06:30:28.711Z,64.10
2022-08-17T06:33:24.499Z,64.30
2022-08-17T06:36:15.830Z,64.00
2022-08-17T06:39:17.566Z,63.80
2022-08-17T06:41:58.916Z,63.60
2022-08-17T06:44:44.780Z,63.50
2022-08-17T06:47:28.850Z,63.60
2022-08-17T06:50:04.593Z,63.50
2022-08-17T06:52:46.436Z,63.40
2022-08-17T06:55:27.056Z,63.40
2022-08-17T06:57:57.445Z,63.40
2022-08-17T07:00:29.153Z,63.40
2022-08-17T07:03:00.051Z,63.30
2022-08-17T07:05:31.307Z,63.10
2022-08-17T07:08:18.841Z,63.30
2022-08-17T07:10:51.229Z,62.80
2022-08-17T07:13:26.018Z,62.90
2022-08-17T07:15:57.061Z,62.80
2022-08-17T07:18:25.455Z,63.10
2022-08-17T07:20:52.320Z,63.00
2022-08-17T07:24:08.248Z,63.00
2022-08-17T07:26:35.006Z,62.70
2022-08-17T07:29:02.331Z,62.70
2022-08-17T07:31:30.487Z,62.80
2022-08-17T07:34:06.827Z,62.50
2022-08-17T07:36:34.401Z,62.20
2022-08-17T07:39:02.125Z,61.90
2022-08-17T07:41:58.048Z,61.80
2022-08-17T07:44:17.543Z,61.60
2022-08-17T07:47:09.789Z,61.40
2022-08-17T07:49:41.483Z,61.30
2022-08-17T07:52:48.312Z,60.80
2022-08-17T07:55:26.497Z,60.90
2022-08-17T07:57:57.449Z,60.50
2022-08-17T08:00:31.729Z,60.50
2022-08-17T08:03:31.885Z,60.30
2022-08-17T08:06:02.010Z,60.00
2022-08-17T08:08:42.323Z,59.90
2022-08-17T08:11:15.439Z,59.80
2022-08-17T08:13:45.092Z,59.80
2022-08-17T08:16:24.399Z,59.70
2022-08-17T08:18:57.829Z,60.00
2022-08-17T08:21:47.875Z,59.70
2022-08-17T08:24:36.935Z,59.60
2022-08-17T08:27:19.657Z,59.70
2022-08-17T08:29:54.106Z,59.40
2022-08-17T08:32:29.895Z,59.70
2022-08-17T08:35:09.656Z,59.80
2022-08-17T08:37:53.598Z,59.50
2022-08-17T08:40:35.653Z,59.90
2022-08-17T08:43:36.161Z,58.90
2022-08-17T08:46:20.998Z,58.90
2022-08-17T08:48:56.346Z,58.50
2022-08-17T08:51:40.472Z,58.30
2022-08-17T08:54:16.605Z,58.50
2022-08-17T08:57:19.812Z,57.80
2022-08-17T09:00:09.073Z,57.60
2022-08-17T09:02:45.446Z,57.70
2022-08-17T09:05:15.639Z,57.80
2022-08-17T09:07:58.708Z,57.70
2022-08-17T09:11:10.261Z,57.60
2022-08-17T09:13:59.206Z,57.70
2022-08-17T09:16:30.086Z,57.90
2022-08-17T09:19:10.810Z,57.90
2022-08-17T09:21:52.612Z,58.00
2022-08-17T09:24:26.952Z,58.40
2022-08-17T09:27:03.172Z,58.50
2022-08-17T09:29:35.047Z,58.20
2022-08-17T09:32:04.802Z,58.20
2022-08-17T09:34:56.632Z,58.10
2022-08-17T09:37:38.052Z,58.00
2022-08-17T09:40:27.743Z,58.10
2022-08-17T09:43:19.536Z,57.80
2022-08-17T09:45:57.329Z,58.00
2022-08-17T09:48:41.437Z,57.80
2022-08-17T09:51:13.825Z,57.70
2022-08-17T09:53:40.692Z,57.40
2022-08-17T09:56:25.560Z,56.90
2022-08-17T09:59:00.629Z,56.60
2022-08-17T10:01:48.682Z,56.60
2022-08-17T10:04:33.977Z,56.60
2022-08-17T10:07:14.802Z,57.10
2022-08-17T10:09:41.478Z,56.20
2022-08-17T10:12:47.115Z,55.70
2022-08-17T10:15:31.725Z,55.00
2022-08-17T10:18:30.519Z,55.20
2022-08-17T10:21:21.619Z,55.00
2022-08-17T10:24:28.051Z,54.70
2022-08-17T10:26:57.254Z,54.50
2022-08-17T10:29:40.794Z,54.10
2022-08-17T10:32:39.780Z,53.80
2022-08-17T10:35:29.044Z,53.40
2022-08-17T10:38:24.325Z,52.80
2022-08-17T10:41:00.204Z,53.00
2022-08-17T10:44:37.491Z,52.80
2022-08-17T10:46:52.312Z,52.50
2022-08-17T10:49:19.033Z,52.60
2022-08-17T10:51:54.374Z,52.80
2022-08-17T10:54:46.964Z,52.30
2022-08-17T10:57:36.998Z,52.10
2022-08-17T11:00:15.799Z,51.90
2022-08-17T11:02:56.210Z,51.50
2022-08-17T11:05:28.562Z,51.20
2022-08-17T11:08:39.354Z,51.40
2022-08-17T11:11:35.914Z,51.10
2022-08-17T11:14:17.994Z,51.60
2022-08-17T11:17:15.503Z,52.00
2022-08-17T11:20:00.553Z,51.40
2022-08-17T11:22:38.994Z,51.40
2022-08-17T11:25:16.928Z,51.10
2022-08-17T11:27:44.139Z,51.10
2022-08-17T11:30:40.733Z,50.20
2022-08-17T11:33:29.048Z,50.20
2022-08-17T11:36:04.142Z,50.50
2022-08-17T11:38:41.318Z,50.70
2022-08-17T11:41:44.783Z,50.70
2022-08-17T11:44:29.052Z,51.00
2022-08-17T11:47:27.139Z,50.90
2022-08-17T11:50:34.226Z,50.50
2022-08-17T11:53:01.220Z,50.50
2022-08-17T11:55:50.650Z,50.40
2022-08-17T11:58:29.475Z,50.00
2022-08-17T12:01:22.754Z,50.00
2022-08-17T12:04:03.697Z,49.70
2022-08-17T12:06:34.929Z,50.30
2022-08-17T12:09:07.199Z,49.40
2022-08-17T12:12:11.414Z,49.30
2022-08-17T12:17:39.757Z,49.20
2022-08-17T12:20:36.092Z,49.20
2022-08-17T12:23:21.595Z,49.20
2022-08-17T12:26:30.460Z,48.50
2022-08-17T12:31:50.217Z,48.10
2022-08-17T12:34:35.926Z,48.20
2022-08-17T12:37:21.842Z,48.20
2022-08-17T12:40:00.395Z,48.10
2022-08-17T12:42:39.241Z,47.70
2022-08-17T12:45:07.591Z,47.80
2022-08-17T12:47:37.110Z,48.00
2022-08-17T12:50:29.616Z,47.40
2022-08-17T12:53:01.730Z,47.70
2022-08-17T12:55:33.819Z,47.80
2022-08-17T12:58:01.963Z,46.50
2022-08-17T13:00:34.355Z,46.90
2022-08-17T13:03:09.621Z,46.80
2022-08-17T13:05:41.603Z,46.70
2022-08-17T13:08:20.269Z,46.50
2022-08-17T13:11:02.968Z,46.50
2022-08-17T13:13:35.968Z,46.50
2022-08-17T13:16:11.808Z,46.50
2022-08-17T13:18:41.245Z,46.30
2022-08-17T13:21:18.089Z,46.40
2022-08-17T13:24:04.962Z,46.20
2022-08-17T13:26:40.292Z,45.50
2022-08-17T13:29:31.019Z,45.60
2022-08-17T13:32:12.960Z,45.40
2022-08-17T13:35:13.175Z,45.80
2022-08-17T13:37:35.476Z,45.80
2022-08-17T13:40:11.366Z,45.80
2022-08-17T13:42:52.157Z,45.60
2022-08-17T13:45:36.460Z,45.60
2022-08-17T13:48:12.376Z,45.70
2022-08-17T13:50:43.995Z,45.30
2022-08-17T13:53:27.145Z,45.40
2022-08-17T13:55:59.517Z,45.30
2022-08-17T13:58:33.824Z,45.30
2022-08-17T14:01:33.008Z,45.60
2022-08-17T14:04:00.928Z,45.80
2022-08-17T14:06:51.910Z,45.90
2022-08-17T14:09:19.853Z,46.10
2022-08-17T14:11:49.251Z,45.90
2022-08-17T14:14:16.176Z,45.90
2022-08-17T14:16:43.085Z,45.70
2022-08-17T14:19:11.522Z,45.50
2022-08-17T14:21:39.279Z,45.40
2022-08-17T14:24:06.113Z,45.50
2022-08-17T14:26:33.201Z,45.50
2022-08-17T14:28:59.939Z,46.20
2022-08-17T14:31:27.698Z,45.90
2022-08-17T14:33:54.651Z,46.10
2022-08-17T14:36:21.420Z,46.30
2022-08-17T14:38:48.221Z,46.20
2022-08-17T14:41:18.745Z,46.00
2022-08-17T14:43:48.682Z,45.70
2022-08-17T14:46:15.474Z,45.60
2022-08-17T14:48:42.314Z,45.60
2022-08-17T14:51:09.105Z,45.30
2022-08-17T14:53:36.702Z,45.40
2022-08-17T14:56:03.925Z,45.60
2022-08-17T14:58:30.768Z,45.90
2022-08-17T15:00:57.738Z,45.90
2022-08-17T15:03:24.519Z,45.90
2022-08-17T15:05:51.269Z,45.90
2022-08-17T15:08:19.514Z,45.80
2022-08-17T15:10:46.598Z,45.50
2022-08-17T15:13:19.635Z,45.10
2022-08-17T15:15:46.885Z,45.00
2022-08-17T15:18:13.693Z,44.70
2022-08-17T15:20:40.750Z,45.30
2022-08-17T15:23:09.558Z,44.60
2022-08-17T15:25:36.266Z,44.20
2022-08-17T15:28:03.185Z,44.00
2022-08-17T15:30:30.094Z,43.50
2022-08-17T15:32:57.881Z,43.30
2022-08-17T15:35:28.273Z,43.50
2022-08-17T15:38:11.697Z,43.60
2022-08-17T15:40:44.569Z,43.70
2022-08-17T15:43:28.000Z,43.90
2022-08-17T15:46:04.081Z,43.80
2022-08-17T15:48:43.836Z,44.00
2022-08-17T15:51:36.754Z,44.50
2022-08-17T15:54:17.279Z,45.10
2022-08-17T15:56:46.430Z,46.00
2022-08-17T15:59:13.175Z,45.80
2022-08-17T16:03:01.456Z,45.90
2022-08-17T16:04:30.819Z,45.50
2022-08-17T16:06:58.739Z,45.50
2022-08-17T16:09:25.529Z,45.50
2022-08-17T16:11:55.622Z,45.70
2022-08-17T16:14:24.354Z,46.00
2022-08-17T16:16:51.924Z,46.10
2022-08-17T16:19:18.682Z,46.10
2022-08-17T16:21:45.417Z,46.20
2022-08-17T16:24:12.880Z,46.40
2022-08-17T16:26:40.486Z,46.60
2022-08-17T16:29:07.394Z,46.80
2022-08-17T16:31:34.243Z,46.70
2022-08-17T16:34:16.986Z,46.70
2022-08-17T16:36:55.110Z,46.70
2022-08-17T16:39:26.930Z,46.90
2022-08-17T16:41:53.830Z,46.90
2022-08-17T16:44:21.041Z,46.80
2022-08-17T16:46:48.395Z,46.90
2022-08-17T16:49:35.244Z,47.10
2022-08-17T16:52:03.328Z,47.20
2022-08-17T16:54:30.266Z,47.30
2022-08-17T16:56:57.025Z,47.60
2022-08-17T16:59:31.363Z,47.80
2022-08-17T17:02:11.116Z,47.90
2022-08-17T17:04:42.114Z,48.40
2022-08-17T17:07:33.989Z,48.60
2022-08-17T17:10:22.136Z,48.10
2022-08-17T17:13:01.018Z,48.20
2022-08-17T17:15:31.552Z,48.30
2022-08-17T17:18:06.825Z,48.50
2022-08-17T17:20:40.061Z,48.60
2022-08-17T17:23:20.046Z,48.70
2022-08-17T17:26:22.135Z,48.70
2022-08-17T17:29:48.071Z,48.80
2022-08-17T17:32:19.460Z,49.10
2022-08-17T17:34:50.859Z,49.20
2022-08-17T17:37:21.129Z,49.30
2022-08-17T17:39:52.564Z,49.50
2022-08-17T17:42:21.150Z,49.60
2022-08-17T17:44:56.266Z,49.70
2022-08-17T17:47:23.067Z,49.90
2022-08-17T17:49:49.903Z,50.00
2022-08-17T17:52:37.796Z,50.20
2022-08-17T17:55:34.024Z,50.50
2022-08-17T17:58:30.010Z,50.30
2022-08-17T18:01:34.317Z,50.30
2022-08-17T18:04:22.907Z,50.30
2022-08-17T18:07:02.457Z,50.40
2022-08-17T18:09:51.672Z,50.60
2022-08-17T18:13:21.973Z,50.80
2022-08-17T18:15:54.389Z,51.10
2022-08-17T18:18:38.293Z,51.40
2022-08-17T18:21:16.656Z,51.60
2022-08-17T18:23:47.978Z,51.50
2022-08-17T18:26:32.581Z,51.60
2022-08-17T18:29:00.454Z,51.70
2022-08-17T18:31:27.338Z,51.80
2022-08-17T18:33:55.117Z,52.20
2022-08-17T18:36:33.481Z,52.40
2022-08-17T18:39:11.738Z,52.80
2022-08-17T18:41:43.008Z,53.00
2022-08-17T18:44:30.732Z,53.10
2022-08-17T18:47:19.667Z,53.40
2022-08-17T18:49:51.924Z,53.60
2022-08-17T18:52:29.175Z,53.40
2022-08-17T18:55:08.884Z,53.60
2022-08-17T18:57:45.865Z,53.70
2022-08-17T19:00:18.217Z,53.80
2022-08-17T19:03:01.614Z,53.80
2022-08-17T19:05:35.011Z,53.90
2022-08-17T19:08:27.825Z,53.90
2022-08-17T19:11:08.796Z,54.10
2022-08-17T19:13:37.509Z,54.20
2022-08-17T19:16:18.227Z,54.30
2022-08-17T19:19:15.626Z,54.30
2022-08-17T19:21:49.255Z,54.50
2022-08-17T19:24:23.613Z,54.40
2022-08-17T19:27:16.661Z,54.50
2022-08-17T19:29:51.857Z,54.70
2022-08-17T19:32:23.247Z,54.80
2022-08-17T19:34:50.041Z,55.00
2022-08-17T19:37:44.576Z,55.10
2022-08-17T19:40:51.019Z,55.20
2022-08-17T19:43:28.602Z,55.20
2022-08-17T19:46:13.129Z,55.40
2022-08-17T19:49:07.851Z,55.40
2022-08-17T19:51:34.550Z,55.60
2022-08-17T19:54:06.668Z,55.60
2022-08-17T19:56:57.969Z,55.40
2022-08-17T19:59:46.330Z,55.30
2022-08-17T20:02:28.389Z,55.50
2022-08-17T20:04:57.548Z,55.50
2022-08-17T20:07:31.282Z,55.70
2022-08-17T20:10:09.450Z,55.80
2022-08-17T20:12:38.034Z,56.00
2022-08-17T20:15:04.845Z,56.00
2022-08-17T20:17:34.703Z,56.20
2022-08-17T20:20:32.600Z,56.20
2022-08-17T20:23:04.949Z,56.20
2022-08-17T20:25:35.797Z,56.40
2022-08-17T20:28:14.882Z,56.20
2022-08-17T20:30:42.240Z,56.40
2022-08-17T20:33:26.250Z,56.50
2022-08-17T20:36:22.502Z,56.60
2022-08-17T20:38:56.827Z,56.80
2022-08-17T20:41:28.380Z,57.00
2022-08-17T20:43:58.845Z,57.00
2022-08-17T20:46:37.880Z,57.10
2022-08-17T20:49:45.752Z,57.00
2022-08-17T20:52:15.421Z,57.10
2022-08-17T20:54:57.610Z,57.10
2022-08-17T20:57:33.377Z,57.30
2022-08-17T21:00:07.424Z,57.30
2022-08-17T21:02:37.065Z,57.40
2022-08-17T21:05:36.674Z,57.40
2022-08-17T21:08:16.573Z,57.40
2022-08-17T21:10:45.535Z,57.80
2022-08-17T21:13:15.651Z,57.80
2022-08-17T21:15:43.667Z,57.90
2022-08-17T21:18:43.705Z,57.80
2022-08-17T21:21:23.942Z,57.90
2022-08-17T21:23:56.763Z,58.60
2022-08-17T21:26:30.819Z,58.00
2022-08-17T21:29:30.323Z,58.10
2022-08-17T21:32:03.671Z,58.20
2022-08-17T21:34:36.640Z,58.20
2022-08-17T21:37:24.931Z,58.20
2022-08-17T21:39:54.525Z,58.30
2022-08-17T21:42:29.766Z,58.20
2022-08-17T21:45:17.559Z,59.00
2022-08-17T21:47:49.008Z,58.50
2022-08-17T21:50:25.052Z,58.60
2022-08-17T21:53:02.266Z,58.80
2022-08-17T21:55:30.802Z,58.80
2022-08-17T21:58:13.973Z,58.90
2022-08-17T22:00:42.427Z,59.60
2022-08-17T22:03:09.507Z,59.00
2022-08-17T22:05:37.816Z,59.40
2022-08-17T22:08:06.477Z,59.70
2022-08-17T22:10:37.833Z,59.80
2022-08-17T22:13:17.193Z,59.70
2022-08-17T22:15:49.006Z,60.10
2022-08-17T22:18:22.024Z,59.90
2022-08-17T22:20:50.694Z,59.70
2022-08-17T22:23:46.648Z,60.50
2022-08-17T22:26:14.574Z,59.80
2022-08-17T22:28:42.918Z,59.90
2022-08-17T22:31:10.892Z,60.10
2022-08-17T22:33:44.419Z,60.10
2022-08-17T22:36:21.995Z,60.00
2022-08-17T22:38:49.021Z,60.10
2022-08-17T22:41:26.249Z,60.70
2022-08-17T22:43:53.362Z,60.40
2022-08-17T22:46:21.098Z,60.30
2022-08-17T22:48:53.001Z,60.30
2022-08-17T22:51:25.831Z,60.50
2022-08-17T22:54:22.290Z,60.60
2022-08-17T22:57:20.201Z,60.80
2022-08-17T22:59:52.634Z,61.00
2022-08-17T23:02:22.242Z,62.00
2022-08-17T23:05:10.135Z,61.20
2022-08-17T23:07:36.959Z,61.40
2022-08-17T23:10:06.471Z,61.50
2022-08-17T23:12:38.067Z,61.70
2022-08-17T23:15:10.675Z,61.90
2022-08-17T23:17:37.766Z,61.80
2022-08-17T23:20:08.531Z,61.90
2022-08-17T23:22:37.065Z,61.70
2022-08-17T23:25:04.330Z,61.90
2022-08-17T23:27:31.670Z,61.70
2022-08-17T23:29:58.504Z,61.80
2022-08-17T23:32:25.262Z,61.90
2022-08-17T23:34:51.982Z,62.10
2022-08-17T23:37:19.164Z,62.30
2022-08-17T23:39:46.069Z,62.60
2022-08-17T23:42:15.352Z,62.50
2022-08-17T23:44:43.688Z,62.50
2022-08-17T23:47:10.986Z,62.50
2022-08-17T23:49:38.727Z,62.50
2022-08-17T23:52:06.007Z,62.70
2022-08-17T23:54:35.559Z,63.00
2022-08-17T23:57:02.873Z,63.00
2022-08-17T23:59:29.627Z,63.00
